sensor_id;sensor_type;location;lat;lon;timestamp;P1;durP1;ratioP1;P2;durP2;ratioP2
76127;SDS011;64873;50.102;14.434;2023-06-10T00:01:18;14.20;;;9.23;;
76127;SDS011;64873;50.102;14.434;2023-06-10T00:03:44;13.95;;;9.60;;
76127;SDS011;64873;50.102;14.434;2023-06-10T00:06:09;11.80;;;9.80;;
76127;SDS011;64873;50.102;14.434;2023-06-10T00:08:35;15.55;;;10.35;;
76127;SDS011;64873;50.102;14.434;2023-06-10T00:11:02;15.05;;;11.32;;
76127;SDS011;64873;50.102;14.434;2023-06-10T00:13:28;13.57;;;10.55;;
76127;SDS011;64873;50.102;14.434;2023-06-10T00:15:53;16.15;;;10.88;;
76127;SDS011;64873;50.102;14.434;2023-06-10T00:18:18;17.20;;;10.93;;
76127;SDS011;64873;50.102;14.434;2023-06-10T00:20:46;14.07;;;9.93;;
76127;SDS011;64873;50.102;14.434;2023-06-10T00:23:14;14.93;;;10.57;;
76127;SDS011;64873;50.102;14.434;2023-06-10T00:25:39;15.98;;;10.75;;
76127;SDS011;64873;50.102;14.434;2023-06-10T00:28:05;24.02;;;11.38;;
76127;SDS011;64873;50.102;14.434;2023-06-10T00:30:30;15.38;;;10.43;;
76127;SDS011;64873;50.102;14.434;2023-06-10T00:32:56;15.73;;;11.13;;
76127;SDS011;64873;50.102;14.434;2023-06-10T00:35:21;17.23;;;11.23;;
76127;SDS011;64873;50.102;14.434;2023-06-10T00:37:47;16.35;;;10.77;;
76127;SDS011;64873;50.102;14.434;2023-06-10T00:40:12;15.23;;;10.75;;
76127;SDS011;64873;50.102;14.434;2023-06-10T00:42:37;18.05;;;10.43;;
76127;SDS011;64873;50.102;14.434;2023-06-10T00:45:03;16.88;;;10.50;;
76127;SDS011;64873;50.102;14.434;2023-06-10T00:47:30;17.60;;;10.32;;
76127;SDS011;64873;50.102;14.434;2023-06-10T00:49:56;13.82;;;10.52;;
76127;SDS011;64873;50.102;14.434;2023-06-10T00:52:22;18.60;;;11.98;;
76127;SDS011;64873;50.102;14.434;2023-06-10T00:54:52;19.85;;;12.88;;
76127;SDS011;64873;50.102;14.434;2023-06-10T00:57:17;19.02;;;11.48;;
76127;SDS011;64873;50.102;14.434;2023-06-10T00:59:45;21.50;;;11.65;;
76127;SDS011;64873;50.102;14.434;2023-06-10T01:02:13;17.90;;;11.27;;
76127;SDS011;64873;50.102;14.434;2023-06-10T01:04:38;15.18;;;11.00;;
76127;SDS011;64873;50.102;14.434;2023-06-10T01:07:28;14.55;;;10.73;;
76127;SDS011;64873;50.102;14.434;2023-06-10T01:12:45;15.52;;;10.18;;
76127;SDS011;64873;50.102;14.434;2023-06-10T01:15:16;17.15;;;10.63;;
76127;SDS011;64873;50.102;14.434;2023-06-10T01:17:55;14.38;;;10.88;;
76127;SDS011;64873;50.102;14.434;2023-06-10T01:20:23;16.77;;;10.45;;
76127;SDS011;64873;50.102;14.434;2023-06-10T01:22:49;16.05;;;10.23;;
76127;SDS011;64873;50.102;14.434;2023-06-10T01:25:16;18.80;;;11.27;;
76127;SDS011;64873;50.102;14.434;2023-06-10T01:27:43;15.13;;;11.63;;
76127;SDS011;64873;50.102;14.434;2023-06-10T01:30:16;14.75;;;11.18;;
76127;SDS011;64873;50.102;14.434;2023-06-10T01:32:48;18.70;;;12.70;;
76127;SDS011;64873;50.102;14.434;2023-06-10T01:35:16;15.57;;;11.30;;
76127;SDS011;64873;50.102;14.434;2023-06-10T01:37:45;15.45;;;11.77;;
76127;SDS011;64873;50.102;14.434;2023-06-10T01:40:12;21.58;;;12.85;;
76127;SDS011;64873;50.102;14.434;2023-06-10T01:42:39;17.63;;;12.50;;
76127;SDS011;64873;50.102;14.434;2023-06-10T01:45:05;20.70;;;12.68;;
76127;SDS011;64873;50.102;14.434;2023-06-10T01:47:31;22.35;;;12.90;;
76127;SDS011;64873;50.102;14.434;2023-06-10T01:49:56;14.55;;;11.85;;
76127;SDS011;64873;50.102;14.434;2023-06-10T01:52:22;21.95;;;11.52;;
76127;SDS011;64873;50.102;14.434;2023-06-10T01:54:47;15.32;;;11.25;;
76127;SDS011;64873;50.102;14.434;2023-06-10T01:57:13;15.65;;;10.52;;
76127;SDS011;64873;50.102;14.434;2023-06-10T01:59:38;15.95;;;9.57;;
76127;SDS011;64873;50.102;14.434;2023-06-10T02:02:04;17.85;;;10.75;;
76127;SDS011;64873;50.102;14.434;2023-06-10T02:04:30;15.32;;;10.10;;
76127;SDS011;64873;50.102;14.434;2023-06-10T02:06:55;15.70;;;10.02;;
76127;SDS011;64873;50.102;14.434;2023-06-10T02:09:21;15.90;;;10.38;;
76127;SDS011;64873;50.102;14.434;2023-06-10T02:11:48;14.57;;;10.73;;
76127;SDS011;64873;50.102;14.434;2023-06-10T02:14:14;13.95;;;11.23;;
76127;SDS011;64873;50.102;14.434;2023-06-10T02:16:39;13.52;;;10.02;;
76127;SDS011;64873;50.102;14.434;2023-06-10T02:19:05;14.38;;;10.77;;
76127;SDS011;64873;50.102;14.434;2023-06-10T02:21:31;14.70;;;10.32;;
76127;SDS011;64873;50.102;14.434;2023-06-10T02:23:57;17.17;;;11.85;;
76127;SDS011;64873;50.102;14.434;2023-06-10T02:26:22;16.70;;;11.23;;
76127;SDS011;64873;50.102;14.434;2023-06-10T02:28:48;14.90;;;11.60;;
76127;SDS011;64873;50.102;14.434;2023-06-10T02:31:13;15.30;;;11.80;;
76127;SDS011;64873;50.102;14.434;2023-06-10T02:33:39;20.75;;;12.98;;
76127;SDS011;64873;50.102;14.434;2023-06-10T02:36:05;18.63;;;12.07;;
76127;SDS011;64873;50.102;14.434;2023-06-10T02:38:31;15.75;;;10.57;;
76127;SDS011;64873;50.102;14.434;2023-06-10T02:40:56;16.75;;;12.85;;
76127;SDS011;64873;50.102;14.434;2023-06-10T02:43:22;19.45;;;12.45;;
76127;SDS011;64873;50.102;14.434;2023-06-10T02:45:47;17.40;;;13.20;;
76127;SDS011;64873;50.102;14.434;2023-06-10T02:48:12;17.92;;;11.85;;
76127;SDS011;64873;50.102;14.434;2023-06-10T02:50:38;20.70;;;13.13;;
76127;SDS011;64873;50.102;14.434;2023-06-10T02:53:05;16.42;;;11.55;;
76127;SDS011;64873;50.102;14.434;2023-06-10T02:55:30;20.65;;;13.23;;
76127;SDS011;64873;50.102;14.434;2023-06-10T02:57:57;17.13;;;12.13;;
76127;SDS011;64873;50.102;14.434;2023-06-10T03:00:23;24.45;;;12.40;;
76127;SDS011;64873;50.102;14.434;2023-06-10T03:02:48;15.77;;;12.43;;
76127;SDS011;64873;50.102;14.434;2023-06-10T03:05:14;20.10;;;12.88;;
76127;SDS011;64873;50.102;14.434;2023-06-10T03:07:39;17.70;;;12.68;;
76127;SDS011;64873;50.102;14.434;2023-06-10T03:10:05;15.30;;;11.73;;
76127;SDS011;64873;50.102;14.434;2023-06-10T03:12:32;14.90;;;11.60;;
76127;SDS011;64873;50.102;14.434;2023-06-10T03:14:57;17.13;;;11.77;;
76127;SDS011;64873;50.102;14.434;2023-06-10T03:17:23;16.08;;;11.68;;
76127;SDS011;64873;50.102;14.434;2023-06-10T03:19:48;16.83;;;10.90;;
76127;SDS011;64873;50.102;14.434;2023-06-10T03:22:14;16.23;;;11.45;;
76127;SDS011;64873;50.102;14.434;2023-06-10T03:24:41;16.17;;;11.45;;
76127;SDS011;64873;50.102;14.434;2023-06-10T03:27:11;14.48;;;11.38;;
76127;SDS011;64873;50.102;14.434;2023-06-10T03:29:38;18.25;;;11.52;;
76127;SDS011;64873;50.102;14.434;2023-06-10T03:32:04;17.23;;;10.73;;
76127;SDS011;64873;50.102;14.434;2023-06-10T03:34:30;17.27;;;12.82;;
76127;SDS011;64873;50.102;14.434;2023-06-10T03:36:56;16.98;;;11.98;;
76127;SDS011;64873;50.102;14.434;2023-06-10T03:39:22;17.50;;;12.23;;
76127;SDS011;64873;50.102;14.434;2023-06-10T03:41:48;18.00;;;11.50;;
76127;SDS011;64873;50.102;14.434;2023-06-10T03:44:14;17.77;;;10.93;;
76127;SDS011;64873;50.102;14.434;2023-06-10T03:46:40;20.27;;;11.55;;
76127;SDS011;64873;50.102;14.434;2023-06-10T03:49:06;21.42;;;11.35;;
76127;SDS011;64873;50.102;14.434;2023-06-10T03:51:32;18.00;;;10.65;;
76127;SDS011;64873;50.102;14.434;2023-06-10T03:53:57;15.98;;;11.63;;
76127;SDS011;64873;50.102;14.434;2023-06-10T03:56:23;15.82;;;10.30;;
76127;SDS011;64873;50.102;14.434;2023-06-10T03:58:48;15.00;;;10.70;;
76127;SDS011;64873;50.102;14.434;2023-06-10T04:01:14;19.55;;;11.75;;
76127;SDS011;64873;50.102;14.434;2023-06-10T04:03:40;22.70;;;12.25;;
76127;SDS011;64873;50.102;14.434;2023-06-10T04:06:06;18.67;;;11.00;;
76127;SDS011;64873;50.102;14.434;2023-06-10T04:08:32;18.42;;;11.20;;
76127;SDS011;64873;50.102;14.434;2023-06-10T04:10:58;17.55;;;12.00;;
76127;SDS011;64873;50.102;14.434;2023-06-10T04:13:24;20.02;;;11.52;;
76127;SDS011;64873;50.102;14.434;2023-06-10T04:15:49;16.92;;;11.13;;
76127;SDS011;64873;50.102;14.434;2023-06-10T04:18:14;14.73;;;11.00;;
76127;SDS011;64873;50.102;14.434;2023-06-10T04:20:40;21.20;;;11.68;;
76127;SDS011;64873;50.102;14.434;2023-06-10T04:23:06;17.63;;;12.43;;
76127;SDS011;64873;50.102;14.434;2023-06-10T04:25:32;21.98;;;12.63;;
76127;SDS011;64873;50.102;14.434;2023-06-10T04:27:57;16.77;;;11.02;;
76127;SDS011;64873;50.102;14.434;2023-06-10T04:30:23;16.90;;;11.13;;
76127;SDS011;64873;50.102;14.434;2023-06-10T04:32:48;16.73;;;11.93;;
76127;SDS011;64873;50.102;14.434;2023-06-10T04:35:14;14.38;;;10.50;;
76127;SDS011;64873;50.102;14.434;2023-06-10T04:37:40;19.63;;;12.45;;
76127;SDS011;64873;50.102;14.434;2023-06-10T04:40:06;16.13;;;10.98;;
76127;SDS011;64873;50.102;14.434;2023-06-10T04:42:33;14.55;;;11.15;;
76127;SDS011;64873;50.102;14.434;2023-06-10T04:45:00;15.75;;;11.00;;
76127;SDS011;64873;50.102;14.434;2023-06-10T04:47:26;18.25;;;10.80;;
76127;SDS011;64873;50.102;14.434;2023-06-10T04:49:51;15.05;;;10.43;;
76127;SDS011;64873;50.102;14.434;2023-06-10T04:52:17;15.75;;;11.27;;
76127;SDS011;64873;50.102;14.434;2023-06-10T04:54:43;18.15;;;10.85;;
76127;SDS011;64873;50.102;14.434;2023-06-10T04:57:08;16.30;;;11.82;;
76127;SDS011;64873;50.102;14.434;2023-06-10T04:59:36;16.38;;;11.15;;
76127;SDS011;64873;50.102;14.434;2023-06-10T05:02:06;17.98;;;11.70;;
76127;SDS011;64873;50.102;14.434;2023-06-10T05:04:31;16.20;;;10.85;;
76127;SDS011;64873;50.102;14.434;2023-06-10T05:06:57;15.38;;;11.23;;
76127;SDS011;64873;50.102;14.434;2023-06-10T05:09:22;13.48;;;10.80;;
76127;SDS011;64873;50.102;14.434;2023-06-10T05:11:47;19.70;;;12.60;;
76127;SDS011;64873;50.102;14.434;2023-06-10T05:14:13;18.23;;;12.32;;
76127;SDS011;64873;50.102;14.434;2023-06-10T05:16:39;14.57;;;11.02;;
76127;SDS011;64873;50.102;14.434;2023-06-10T05:19:05;14.90;;;10.18;;
76127;SDS011;64873;50.102;14.434;2023-06-10T05:21:30;13.85;;;9.80;;
76127;SDS011;64873;50.102;14.434;2023-06-10T05:23:55;15.63;;;10.98;;
76127;SDS011;64873;50.102;14.434;2023-06-10T05:26:21;13.90;;;10.75;;
76127;SDS011;64873;50.102;14.434;2023-06-10T05:28:47;14.43;;;11.13;;
76127;SDS011;64873;50.102;14.434;2023-06-10T05:31:12;15.68;;;11.20;;
76127;SDS011;64873;50.102;14.434;2023-06-10T05:33:38;15.27;;;9.50;;
76127;SDS011;64873;50.102;14.434;2023-06-10T05:36:04;13.70;;;10.18;;
76127;SDS011;64873;50.102;14.434;2023-06-10T05:38:30;14.77;;;9.90;;
76127;SDS011;64873;50.102;14.434;2023-06-10T05:40:55;13.20;;;9.35;;
76127;SDS011;64873;50.102;14.434;2023-06-10T05:43:22;11.80;;;9.30;;
76127;SDS011;64873;50.102;14.434;2023-06-10T05:45:47;10.80;;;8.70;;
76127;SDS011;64873;50.102;14.434;2023-06-10T05:48:13;15.32;;;8.43;;
76127;SDS011;64873;50.102;14.434;2023-06-10T05:50:38;14.00;;;9.32;;
76127;SDS011;64873;50.102;14.434;2023-06-10T05:53:07;12.90;;;8.98;;
76127;SDS011;64873;50.102;14.434;2023-06-10T05:55:39;10.27;;;8.70;;
76127;SDS011;64873;50.102;14.434;2023-06-10T05:58:06;14.98;;;9.05;;
76127;SDS011;64873;50.102;14.434;2023-06-10T06:00:31;12.60;;;9.25;;
76127;SDS011;64873;50.102;14.434;2023-06-10T06:02:57;15.80;;;8.82;;
76127;SDS011;64873;50.102;14.434;2023-06-10T06:05:23;14.70;;;8.63;;
76127;SDS011;64873;50.102;14.434;2023-06-10T06:07:49;12.68;;;8.63;;
76127;SDS011;64873;50.102;14.434;2023-06-10T06:10:16;13.27;;;7.05;;
76127;SDS011;64873;50.102;14.434;2023-06-10T06:12:42;11.95;;;8.15;;
76127;SDS011;64873;50.102;14.434;2023-06-10T06:15:07;11.73;;;7.57;;
76127;SDS011;64873;50.102;14.434;2023-06-10T06:17:33;11.18;;;7.30;;
76127;SDS011;64873;50.102;14.434;2023-06-10T06:19:59;10.32;;;7.30;;
76127;SDS011;64873;50.102;14.434;2023-06-10T06:22:24;8.23;;;5.97;;
76127;SDS011;64873;50.102;14.434;2023-06-10T06:24:50;6.60;;;5.38;;
76127;SDS011;64873;50.102;14.434;2023-06-10T06:27:15;6.22;;;5.18;;
76127;SDS011;64873;50.102;14.434;2023-06-10T06:29:41;7.60;;;5.38;;
76127;SDS011;64873;50.102;14.434;2023-06-10T06:32:06;7.13;;;4.53;;
76127;SDS011;64873;50.102;14.434;2023-06-10T06:34:32;8.88;;;5.65;;
76127;SDS011;64873;50.102;14.434;2023-06-10T06:36:58;7.05;;;4.15;;
76127;SDS011;64873;50.102;14.434;2023-06-10T06:39:24;6.88;;;4.80;;
76127;SDS011;64873;50.102;14.434;2023-06-10T06:41:49;9.48;;;5.22;;
76127;SDS011;64873;50.102;14.434;2023-06-10T06:44:14;7.05;;;4.57;;
76127;SDS011;64873;50.102;14.434;2023-06-10T06:46:40;10.13;;;4.97;;
76127;SDS011;64873;50.102;14.434;2023-06-10T06:49:05;9.85;;;5.30;;
76127;SDS011;64873;50.102;14.434;2023-06-10T06:51:31;7.13;;;5.40;;
76127;SDS011;64873;50.102;14.434;2023-06-10T06:53:57;6.78;;;5.05;;
76127;SDS011;64873;50.102;14.434;2023-06-10T06:56:24;10.15;;;4.40;;
76127;SDS011;64873;50.102;14.434;2023-06-10T06:58:50;7.43;;;4.38;;
76127;SDS011;64873;50.102;14.434;2023-06-10T07:01:15;7.18;;;5.00;;
76127;SDS011;64873;50.102;14.434;2023-06-10T07:03:41;9.43;;;4.55;;
76127;SDS011;64873;50.102;14.434;2023-06-10T07:06:06;11.48;;;4.70;;
76127;SDS011;64873;50.102;14.434;2023-06-10T07:08:32;5.85;;;4.78;;
76127;SDS011;64873;50.102;14.434;2023-06-10T07:10:57;6.30;;;4.60;;
76127;SDS011;64873;50.102;14.434;2023-06-10T07:13:22;6.32;;;4.85;;
76127;SDS011;64873;50.102;14.434;2023-06-10T07:15:48;6.75;;;4.80;;
76127;SDS011;64873;50.102;14.434;2023-06-10T07:18:15;7.82;;;5.22;;
76127;SDS011;64873;50.102;14.434;2023-06-10T07:20:41;9.32;;;5.38;;
76127;SDS011;64873;50.102;14.434;2023-06-10T07:23:07;7.68;;;5.18;;
76127;SDS011;64873;50.102;14.434;2023-06-10T07:25:32;11.77;;;5.68;;
76127;SDS011;64873;50.102;14.434;2023-06-10T07:27:58;10.23;;;5.10;;
76127;SDS011;64873;50.102;14.434;2023-06-10T07:30:23;8.43;;;4.93;;
76127;SDS011;64873;50.102;14.434;2023-06-10T07:32:48;8.27;;;5.28;;
76127;SDS011;64873;50.102;14.434;2023-06-10T07:35:14;7.85;;;5.32;;
76127;SDS011;64873;50.102;14.434;2023-06-10T07:37:39;8.15;;;4.85;;
76127;SDS011;64873;50.102;14.434;2023-06-10T07:40:05;8.07;;;5.00;;
76127;SDS011;64873;50.102;14.434;2023-06-10T07:42:34;8.55;;;5.85;;
76127;SDS011;64873;50.102;14.434;2023-06-10T07:45:01;10.50;;;6.22;;
76127;SDS011;64873;50.102;14.434;2023-06-10T07:47:27;7.15;;;5.32;;
76127;SDS011;64873;50.102;14.434;2023-06-10T07:49:53;12.70;;;5.30;;
76127;SDS011;64873;50.102;14.434;2023-06-10T07:52:18;10.27;;;6.13;;
76127;SDS011;64873;50.102;14.434;2023-06-10T07:54:44;11.73;;;5.93;;
76127;SDS011;64873;50.102;14.434;2023-06-10T07:57:09;7.50;;;6.05;;
76127;SDS011;64873;50.102;14.434;2023-06-10T07:59:35;12.07;;;5.90;;
76127;SDS011;64873;50.102;14.434;2023-06-10T08:02:00;10.13;;;6.10;;
76127;SDS011;64873;50.102;14.434;2023-06-10T08:04:26;8.25;;;5.70;;
76127;SDS011;64873;50.102;14.434;2023-06-10T08:06:51;10.73;;;7.05;;
76127;SDS011;64873;50.102;14.434;2023-06-10T08:09:16;16.83;;;6.50;;
76127;SDS011;64873;50.102;14.434;2023-06-10T08:11:43;8.63;;;6.60;;
76127;SDS011;64873;50.102;14.434;2023-06-10T08:14:09;10.70;;;6.20;;
76127;SDS011;64873;50.102;14.434;2023-06-10T08:16:34;9.35;;;6.53;;
76127;SDS011;64873;50.102;14.434;2023-06-10T08:19:00;8.20;;;6.25;;
76127;SDS011;64873;50.102;14.434;2023-06-10T08:21:25;8.20;;;6.70;;
76127;SDS011;64873;50.102;14.434;2023-06-10T08:23:53;7.70;;;6.30;;
76127;SDS011;64873;50.102;14.434;2023-06-10T08:26:19;9.65;;;7.10;;
76127;SDS011;64873;50.102;14.434;2023-06-10T08:28:45;10.38;;;6.88;;
76127;SDS011;64873;50.102;14.434;2023-06-10T08:31:10;10.30;;;6.63;;
76127;SDS011;64873;50.102;14.434;2023-06-10T08:33:36;12.50;;;7.25;;
76127;SDS011;64873;50.102;14.434;2023-06-10T08:36:01;15.63;;;7.45;;
76127;SDS011;64873;50.102;14.434;2023-06-10T08:38:27;17.42;;;8.00;;
76127;SDS011;64873;50.102;14.434;2023-06-10T08:40:53;12.77;;;6.38;;
76127;SDS011;64873;50.102;14.434;2023-06-10T08:46:02;10.80;;;6.65;;
76127;SDS011;64873;50.102;14.434;2023-06-10T08:48:29;7.40;;;5.57;;
76127;SDS011;64873;50.102;14.434;2023-06-10T08:50:56;9.48;;;6.68;;
76127;SDS011;64873;50.102;14.434;2023-06-10T08:53:22;9.15;;;6.60;;
76127;SDS011;64873;50.102;14.434;2023-06-10T08:55:51;8.27;;;6.78;;
76127;SDS011;64873;50.102;14.434;2023-06-10T08:58:17;11.48;;;7.65;;
76127;SDS011;64873;50.102;14.434;2023-06-10T09:00:44;9.30;;;6.88;;
76127;SDS011;64873;50.102;14.434;2023-06-10T09:03:11;10.95;;;7.43;;
76127;SDS011;64873;50.102;14.434;2023-06-10T09:05:36;10.25;;;7.20;;
76127;SDS011;64873;50.102;14.434;2023-06-10T09:08:03;10.57;;;7.05;;
76127;SDS011;64873;50.102;14.434;2023-06-10T09:10:29;11.00;;;7.50;;
76127;SDS011;64873;50.102;14.434;2023-06-10T09:12:54;14.02;;;7.97;;
76127;SDS011;64873;50.102;14.434;2023-06-10T09:15:20;9.07;;;7.47;;
76127;SDS011;64873;50.102;14.434;2023-06-10T09:17:46;8.75;;;7.53;;
76127;SDS011;64873;50.102;14.434;2023-06-10T09:20:11;14.35;;;8.10;;
76127;SDS011;64873;50.102;14.434;2023-06-10T09:22:37;8.73;;;7.43;;
76127;SDS011;64873;50.102;14.434;2023-06-10T09:25:06;11.85;;;7.72;;
76127;SDS011;64873;50.102;14.434;2023-06-10T09:27:49;11.48;;;7.60;;
76127;SDS011;64873;50.102;14.434;2023-06-10T09:30:28;10.85;;;7.10;;
76127;SDS011;64873;50.102;14.434;2023-06-10T09:33:00;9.98;;;7.20;;
76127;SDS011;64873;50.102;14.434;2023-06-10T09:35:27;9.15;;;7.72;;
76127;SDS011;64873;50.102;14.434;2023-06-10T09:37:58;13.93;;;7.95;;
76127;SDS011;64873;50.102;14.434;2023-06-10T09:40:25;10.32;;;7.70;;
76127;SDS011;64873;50.102;14.434;2023-06-10T09:42:54;9.88;;;6.70;;
76127;SDS011;64873;50.102;14.434;2023-06-10T09:45:21;12.55;;;6.70;;
76127;SDS011;64873;50.102;14.434;2023-06-10T09:47:50;12.13;;;7.15;;
76127;SDS011;64873;50.102;14.434;2023-06-10T09:50:17;10.13;;;6.50;;
76127;SDS011;64873;50.102;14.434;2023-06-10T09:52:42;11.70;;;6.63;;
76127;SDS011;64873;50.102;14.434;2023-06-10T09:55:10;8.45;;;6.55;;
76127;SDS011;64873;50.102;14.434;2023-06-10T09:57:36;7.00;;;5.72;;
76127;SDS011;64873;50.102;14.434;2023-06-10T10:00:05;7.38;;;6.53;;
76127;SDS011;64873;50.102;14.434;2023-06-10T10:02:33;7.78;;;6.25;;
76127;SDS011;64873;50.102;14.434;2023-06-10T10:05:09;9.48;;;6.68;;
76127;SDS011;64873;50.102;14.434;2023-06-10T10:07:35;9.75;;;6.55;;
76127;SDS011;64873;50.102;14.434;2023-06-10T10:10:00;9.75;;;5.43;;
76127;SDS011;64873;50.102;14.434;2023-06-10T10:12:26;11.38;;;6.43;;
76127;SDS011;64873;50.102;14.434;2023-06-10T10:14:52;7.75;;;6.40;;
76127;SDS011;64873;50.102;14.434;2023-06-10T10:17:20;8.15;;;6.50;;
76127;SDS011;64873;50.102;14.434;2023-06-10T10:19:50;8.10;;;6.22;;
76127;SDS011;64873;50.102;14.434;2023-06-10T10:22:29;7.05;;;5.80;;
76127;SDS011;64873;50.102;14.434;2023-06-10T10:25:01;7.35;;;5.90;;
76127;SDS011;64873;50.102;14.434;2023-06-10T10:27:35;9.98;;;6.30;;
76127;SDS011;64873;50.102;14.434;2023-06-10T10:30:06;7.93;;;6.18;;
76127;SDS011;64873;50.102;14.434;2023-06-10T10:32:38;8.50;;;6.00;;
76127;SDS011;64873;50.102;14.434;2023-06-10T10:35:09;8.68;;;5.88;;
76127;SDS011;64873;50.102;14.434;2023-06-10T10:37:41;6.95;;;4.40;;
76127;SDS011;64873;50.102;14.434;2023-06-10T10:40:07;7.10;;;4.18;;
76127;SDS011;64873;50.102;14.434;2023-06-10T10:42:34;9.05;;;4.50;;
76127;SDS011;64873;50.102;14.434;2023-06-10T10:45:00;8.90;;;4.18;;
76127;SDS011;64873;50.102;14.434;2023-06-10T10:47:27;6.90;;;4.50;;
76127;SDS011;64873;50.102;14.434;2023-06-10T10:49:55;7.60;;;4.40;;
76127;SDS011;64873;50.102;14.434;2023-06-10T10:52:25;9.50;;;4.60;;
76127;SDS011;64873;50.102;14.434;2023-06-10T10:54:52;7.72;;;4.97;;
76127;SDS011;64873;50.102;14.434;2023-06-10T10:57:23;6.10;;;4.88;;
76127;SDS011;64873;50.102;14.434;2023-06-10T11:05:03;7.75;;;4.82;;
76127;SDS011;64873;50.102;14.434;2023-06-10T11:07:30;6.97;;;5.25;;
76127;SDS011;64873;50.102;14.434;2023-06-10T11:10:04;9.68;;;5.20;;
76127;SDS011;64873;50.102;14.434;2023-06-10T11:15:09;7.03;;;4.55;;
76127;SDS011;64873;50.102;14.434;2023-06-10T11:17:35;8.07;;;5.15;;
76127;SDS011;64873;50.102;14.434;2023-06-10T11:20:06;5.38;;;4.18;;
76127;SDS011;64873;50.102;14.434;2023-06-10T11:22:32;7.20;;;4.50;;
76127;SDS011;64873;50.102;14.434;2023-06-10T11:24:58;6.78;;;4.13;;
76127;SDS011;64873;50.102;14.434;2023-06-10T11:27:24;9.07;;;4.65;;
76127;SDS011;64873;50.102;14.434;2023-06-10T11:32:49;6.85;;;4.60;;
76127;SDS011;64873;50.102;14.434;2023-06-10T11:35:19;9.25;;;5.60;;
76127;SDS011;64873;50.102;14.434;2023-06-10T11:37:46;7.80;;;5.15;;
76127;SDS011;64873;50.102;14.434;2023-06-10T11:40:12;10.25;;;5.15;;
76127;SDS011;64873;50.102;14.434;2023-06-10T11:42:39;10.75;;;4.65;;
76127;SDS011;64873;50.102;14.434;2023-06-10T11:45:07;7.40;;;4.90;;
76127;SDS011;64873;50.102;14.434;2023-06-10T11:47:33;8.23;;;5.38;;
76127;SDS011;64873;50.102;14.434;2023-06-10T11:49:59;7.65;;;5.10;;
76127;SDS011;64873;50.102;14.434;2023-06-10T11:52:28;8.73;;;6.03;;
76127;SDS011;64873;50.102;14.434;2023-06-10T11:57:21;9.90;;;6.13;;
76127;SDS011;64873;50.102;14.434;2023-06-10T11:59:47;6.63;;;4.43;;
76127;SDS011;64873;50.102;14.434;2023-06-10T12:02:16;10.18;;;5.35;;
76127;SDS011;64873;50.102;14.434;2023-06-10T12:04:42;9.93;;;5.00;;
76127;SDS011;64873;50.102;14.434;2023-06-10T12:07:07;8.65;;;4.95;;
76127;SDS011;64873;50.102;14.434;2023-06-10T12:09:33;11.48;;;4.53;;
76127;SDS011;64873;50.102;14.434;2023-06-10T12:11:59;7.85;;;4.20;;
76127;SDS011;64873;50.102;14.434;2023-06-10T12:17:18;8.80;;;4.93;;
76127;SDS011;64873;50.102;14.434;2023-06-10T12:19:46;12.25;;;5.30;;
76127;SDS011;64873;50.102;14.434;2023-06-10T12:22:12;11.25;;;5.30;;
76127;SDS011;64873;50.102;14.434;2023-06-10T12:27:27;7.93;;;5.05;;
76127;SDS011;64873;50.102;14.434;2023-06-10T12:29:55;7.90;;;4.70;;
76127;SDS011;64873;50.102;14.434;2023-06-10T12:32:34;6.03;;;4.78;;
76127;SDS011;64873;50.102;14.434;2023-06-10T12:35:11;7.85;;;4.85;;
76127;SDS011;64873;50.102;14.434;2023-06-10T12:37:43;6.30;;;4.45;;
76127;SDS011;64873;50.102;14.434;2023-06-10T12:40:31;7.07;;;4.70;;
76127;SDS011;64873;50.102;14.434;2023-06-10T12:42:58;7.30;;;4.63;;
76127;SDS011;64873;50.102;14.434;2023-06-10T12:45:32;6.28;;;4.53;;
76127;SDS011;64873;50.102;14.434;2023-06-10T12:48:11;8.57;;;4.90;;
76127;SDS011;64873;50.102;14.434;2023-06-10T12:50:38;6.85;;;4.22;;
76127;SDS011;64873;50.102;14.434;2023-06-10T12:53:05;13.52;;;5.32;;
76127;SDS011;64873;50.102;14.434;2023-06-10T12:55:31;10.02;;;4.60;;
76127;SDS011;64873;50.102;14.434;2023-06-10T12:57:57;11.13;;;5.13;;
76127;SDS011;64873;50.102;14.434;2023-06-10T13:00:23;8.32;;;4.07;;
76127;SDS011;64873;50.102;14.434;2023-06-10T13:02:51;10.32;;;4.72;;
76127;SDS011;64873;50.102;14.434;2023-06-10T13:05:18;12.45;;;5.22;;
76127;SDS011;64873;50.102;14.434;2023-06-10T13:07:44;14.13;;;5.38;;
76127;SDS011;64873;50.102;14.434;2023-06-10T13:10:10;15.50;;;4.88;;
76127;SDS011;64873;50.102;14.434;2023-06-10T13:12:35;11.73;;;4.28;;
76127;SDS011;64873;50.102;14.434;2023-06-10T13:15:02;10.95;;;4.72;;
76127;SDS011;64873;50.102;14.434;2023-06-10T13:17:28;5.15;;;3.78;;
76127;SDS011;64873;50.102;14.434;2023-06-10T13:19:53;9.35;;;4.20;;
76127;SDS011;64873;50.102;14.434;2023-06-10T13:22:19;9.80;;;4.30;;
76127;SDS011;64873;50.102;14.434;2023-06-10T13:24:45;4.40;;;3.20;;
76127;SDS011;64873;50.102;14.434;2023-06-10T13:27:11;15.65;;;4.45;;
76127;SDS011;64873;50.102;14.434;2023-06-10T13:29:39;9.88;;;5.00;;
76127;SDS011;64873;50.102;14.434;2023-06-10T13:32:05;6.38;;;3.80;;
76127;SDS011;64873;50.102;14.434;2023-06-10T13:34:31;6.05;;;4.20;;
76127;SDS011;64873;50.102;14.434;2023-06-10T13:36:56;7.55;;;4.47;;
76127;SDS011;64873;50.102;14.434;2023-06-10T13:39:22;9.82;;;4.88;;
76127;SDS011;64873;50.102;14.434;2023-06-10T13:41:47;8.07;;;5.00;;
76127;SDS011;64873;50.102;14.434;2023-06-10T13:44:13;8.50;;;5.00;;
76127;SDS011;64873;50.102;14.434;2023-06-10T13:46:38;11.45;;;4.85;;
76127;SDS011;64873;50.102;14.434;2023-06-10T13:49:04;9.02;;;5.05;;
76127;SDS011;64873;50.102;14.434;2023-06-10T13:51:29;7.97;;;4.75;;
76127;SDS011;64873;50.102;14.434;2023-06-10T13:53:55;6.45;;;4.15;;
76127;SDS011;64873;50.102;14.434;2023-06-10T13:56:20;9.02;;;4.40;;
76127;SDS011;64873;50.102;14.434;2023-06-10T13:58:45;8.02;;;4.20;;
76127;SDS011;64873;50.102;14.434;2023-06-10T14:01:11;10.18;;;4.72;;
76127;SDS011;64873;50.102;14.434;2023-06-10T14:03:36;8.38;;;4.45;;
76127;SDS011;64873;50.102;14.434;2023-06-10T14:06:03;9.13;;;4.07;;
76127;SDS011;64873;50.102;14.434;2023-06-10T14:08:29;6.60;;;4.25;;
76127;SDS011;64873;50.102;14.434;2023-06-10T14:10:54;8.68;;;4.22;;
76127;SDS011;64873;50.102;14.434;2023-06-10T14:13:20;6.80;;;4.50;;
76127;SDS011;64873;50.102;14.434;2023-06-10T14:15:45;8.45;;;3.80;;
76127;SDS011;64873;50.102;14.434;2023-06-10T14:18:11;11.15;;;3.88;;
76127;SDS011;64873;50.102;14.434;2023-06-10T14:20:37;7.40;;;4.40;;
76127;SDS011;64873;50.102;14.434;2023-06-10T14:23:02;9.88;;;3.97;;
76127;SDS011;64873;50.102;14.434;2023-06-10T14:25:27;8.73;;;4.68;;
76127;SDS011;64873;50.102;14.434;2023-06-10T14:27:53;5.95;;;4.65;;
76127;SDS011;64873;50.102;14.434;2023-06-10T14:30:18;10.27;;;4.40;;
76127;SDS011;64873;50.102;14.434;2023-06-10T14:32:45;7.63;;;4.70;;
76127;SDS011;64873;50.102;14.434;2023-06-10T14:35:11;9.43;;;4.88;;
76127;SDS011;64873;50.102;14.434;2023-06-10T14:37:37;13.77;;;4.45;;
76127;SDS011;64873;50.102;14.434;2023-06-10T14:40:03;9.48;;;4.55;;
76127;SDS011;64873;50.102;14.434;2023-06-10T14:42:30;6.50;;;4.15;;